Time;durP1;ratioP1;P1;durP2;ratioP2;P2;SDS_P1;SDS_P2;PMS_P1;PMS_P2;Temp;Humidity;BMP_temperature;BMP_pressure;BME280_temperature;BME280_humidity;BME280_pressure;Samples;Min_cycle;Max_cycle;Signal;HPM_P1;HPM_P2
2023/08/02 00:00:36;;;;;;;3.97;0.70;;;21.40;89.10;;;;;;5092896;28;20062;-69
2023/08/02 00:03:02;;;;;;;4.00;0.68;;;21.40;88.50;;;;;;5092788;28;20511;-69
2023/08/02 00:05:28;;;;;;;0.75;0.50;;;21.30;88.40;;;;;;5092476;28;20095;-70
2023/08/02 00:07:54;;;;;;;2.15;0.70;;;21.30;88.10;;;;;;5092989;28;20024;-70
2023/08/02 00:10:20;;;;;;;4.40;0.68;;;21.30;89.10;;;;;;5092690;28;20016;-70
2023/08/02 00:12:45;;;;;;;0.50;0.40;;;21.30;89.00;;;;;;5092503;28;20093;-69
2023/08/02 00:15:12;;;;;;;1.33;0.70;;;21.30;89.30;;;;;;5092658;28;20024;-71
2023/08/02 00:17:37;;;;;;;0.70;0.52;;;21.30;89.00;;;;;;5092727;28;20020;-73
2023/08/02 00:20:04;;;;;;;0.98;0.70;;;21.20;89.10;;;;;;5092463;28;20031;-71
2023/08/02 00:22:30;;;;;;;4.63;0.70;;;21.30;89.50;;;;;;5092748;28;20032;-69
2023/08/02 00:24:56;;;;;;;1.00;0.47;;;21.20;90.00;;;;;;5092590;28;20112;-69
2023/08/02 00:27:21;;;;;;;1.55;1.02;;;21.20;88.90;;;;;;5092793;28;20560;-69
2023/08/02 00:29:49;;;;;;;1.52;0.73;;;21.20;88.80;;;;;;5092784;28;20073;-73
2023/08/02 00:32:15;;;;;;;2.85;0.43;;;21.20;88.60;;;;;;5092625;28;20032;-71
2023/08/02 00:34:41;;;;;;;1.90;0.70;;;21.20;89.10;;;;;;5074420;28;20025;-71
2023/08/02 00:37:06;;;;;;;3.05;0.57;;;21.20;88.30;;;;;;5092696;28;20025;-71
2023/08/02 00:39:32;;;;;;;1.63;0.70;;;21.20;88.10;;;;;;5092721;28;20502;-71
2023/08/02 00:41:58;;;;;;;0.85;0.70;;;21.20;87.60;;;;;;5092489;28;20052;-70
2023/08/02 00:44:23;;;;;;;2.47;0.70;;;21.20;87.30;;;;;;5112951;28;20030;-70
2023/08/02 00:46:49;;;;;;;1.52;0.70;;;21.20;88.10;;;;;;5112868;28;20141;-70
2023/08/02 00:49:15;;;;;;;1.42;0.60;;;21.20;88.20;;;;;;5112819;28;20062;-69
2023/08/02 00:51:41;;;;;;;1.20;0.77;;;21.20;88.70;;;;;;5112723;28;20424;-68
2023/08/02 00:54:07;;;;;;;2.78;0.70;;;21.20;89.00;;;;;;5112598;28;20099;-69
2023/08/02 00:56:33;;;;;;;1.58;0.70;;;21.10;89.10;;;;;;5112874;28;20488;-69
2023/08/02 00:58:58;;;;;;;1.55;0.60;;;21.10;89.50;;;;;;5110401;28;20062;-69
2023/08/02 01:01:25;;;;;;;0.52;0.52;;;21.20;89.80;;;;;;5109836;28;20043;-69
2023/08/02 01:03:52;;;;;;;2.33;0.80;;;21.10;89.60;;;;;;5110187;28;20028;-69
2023/08/02 01:06:32;;;;;;;0.70;0.70;;;21.20;89.70;;;;;;5094219;28;20034;-70
2023/08/02 01:09:05;;;;;;;2.08;1.27;;;21.20;89.40;;;;;;5114225;28;20421;-69
2023/08/02 01:12:03;;;;;;;1.05;0.80;;;21.20;88.60;;;;;;5116393;28;20031;-71
2023/08/02 01:14:30;;;;;;;1.90;0.63;;;21.20;87.80;;;;;;5114681;28;20081;-69
2023/08/02 01:16:58;;;;;;;1.10;0.70;;;21.30;87.80;;;;;;5116216;28;20427;-69
2023/08/02 01:19:24;;;;;;;1.52;0.80;;;21.30;87.60;;;;;;5116090;28;20024;-70
2023/08/02 01:21:50;;;;;;;1.77;0.95;;;21.20;87.70;;;;;;5115888;28;20060;-69
2023/08/02 01:24:16;;;;;;;0.95;0.80;;;21.20;87.70;;;;;;5097636;28;20070;-70
2023/08/02 01:26:49;;;;;;;0.98;0.63;;;21.20;88.00;;;;;;5115855;28;20023;-69
2023/08/02 01:29:19;;;;;;;0.90;0.60;;;21.20;88.10;;;;;;5115887;28;20023;-70
2023/08/02 01:31:47;;;;;;;0.60;0.60;;;21.20;88.10;;;;;;5115965;28;20118;-69
2023/08/02 01:34:13;;;;;;;2.42;0.73;;;21.20;88.10;;;;;;5116062;28;20068;-69
2023/08/02 01:36:39;;;;;;;2.40;0.60;;;21.20;88.10;;;;;;5115811;28;20080;-69
2023/08/02 01:39:06;;;;;;;0.60;0.57;;;21.20;88.10;;;;;;5115553;28;20028;-69
2023/08/02 01:41:32;;;;;;;6.72;1.42;;;21.20;88.20;;;;;;5115194;28;20043;-68
2023/08/02 01:43:58;;;;;;;0.75;0.68;;;21.20;88.20;;;;;;5115608;28;20114;-68
2023/08/02 01:46:24;;;;;;;2.47;0.85;;;21.20;87.90;;;;;;5115480;28;20165;-69
2023/08/02 01:48:49;;;;;;;0.50;0.50;;;21.20;87.60;;;;;;5115500;28;20027;-69
2023/08/02 01:51:16;;;;;;;1.20;0.70;;;21.20;87.60;;;;;;5115519;28;20027;-69
2023/08/02 01:53:41;;;;;;;0.98;0.60;;;21.20;87.20;;;;;;5115607;28;20514;-68
2023/08/02 01:56:07;;;;;;;0.80;0.65;;;21.30;87.80;;;;;;5115469;28;20024;-69
2023/08/02 01:58:33;;;;;;;2.33;0.63;;;21.30;88.10;;;;;;5115355;28;20016;-68
2023/08/02 02:00:59;;;;;;;0.68;0.50;;;21.30;87.70;;;;;;5115161;28;20059;-70
2023/08/02 02:03:24;;;;;;;0.77;0.55;;;21.30;86.60;;;;;;5115241;28;20027;-68
2023/08/02 02:05:52;;;;;;;0.57;0.50;;;21.40;85.40;;;;;;5115123;28;20027;-69
2023/08/02 02:08:18;;;;;;;1.25;0.68;;;21.30;85.00;;;;;;5115149;28;20046;-69
2023/08/02 02:10:51;;;;;;;0.77;0.50;;;21.40;85.10;;;;;;5115253;28;20091;-69
2023/08/02 02:13:17;;;;;;;1.33;0.50;;;21.30;85.50;;;;;;5115021;28;20043;-69
2023/08/02 02:15:43;;;;;;;1.65;0.60;;;21.40;85.40;;;;;;5115274;28;20031;-69
2023/08/02 02:18:09;;;;;;;2.00;0.77;;;21.30;85.20;;;;;;5114800;28;20020;-69
2023/08/02 02:20:35;;;;;;;1.92;0.70;;;21.30;85.10;;;;;;5113733;28;20047;-69
2023/08/02 02:23:00;;;;;;;2.33;0.65;;;21.40;85.20;;;;;;5114985;28;20031;-69
2023/08/02 02:25:26;;;;;;;1.27;0.50;;;21.30;85.80;;;;;;5096500;28;20084;-69
2023/08/02 02:27:52;;;;;;;1.92;0.60;;;21.30;86.70;;;;;;5115134;28;20020;-69
2023/08/02 02:30:18;;;;;;;0.57;0.57;;;21.30;86.30;;;;;;5114817;28;20012;-69
2023/08/02 02:32:43;;;;;;;1.45;0.60;;;21.30;85.90;;;;;;5114583;28;20153;-69
2023/08/02 02:35:13;;;;;;;1.00;0.55;;;21.30;85.30;;;;;;5096388;28;20081;-71
2023/08/02 02:37:39;;;;;;;0.80;0.57;;;21.30;84.80;;;;;;5114278;28;20447;-70
2023/08/02 02:40:06;;;;;;;0.50;0.43;;;21.30;84.80;;;;;;5114285;28;20058;-74
2023/08/02 02:42:32;;;;;;;4.85;0.50;;;21.30;85.00;;;;;;5114287;28;20398;-70
2023/08/02 02:44:58;;;;;;;2.42;0.73;;;21.30;85.00;;;;;;5114365;28;20041;-70
2023/08/02 02:47:23;;;;;;;0.93;0.70;;;21.30;85.20;;;;;;5114467;28;20099;-71
2023/08/02 02:49:49;;;;;;;0.88;0.60;;;21.30;85.00;;;;;;5114474;28;20097;-70
2023/08/02 02:52:15;;;;;;;2.47;0.60;;;21.30;84.80;;;;;;5114304;28;20386;-73
2023/08/02 02:54:41;;;;;;;1.02;0.50;;;21.30;85.10;;;;;;5114480;28;20023;-70
2023/08/02 02:57:06;;;;;;;3.85;0.70;;;21.30;85.20;;;;;;5114486;28;20027;-68
2023/08/02 02:59:32;;;;;;;1.65;0.60;;;21.30;85.30;;;;;;5114185;28;20019;-69
2023/08/02 03:01:59;;;;;;;1.48;1.00;;;21.20;85.70;;;;;;5114289;28;20047;-70
2023/08/02 03:04:25;;;;;;;2.38;0.60;;;21.20;86.10;;;;;;5114148;28;20031;-69
2023/08/02 03:06:51;;;;;;;1.75;0.80;;;21.20;86.20;;;;;;5113994;28;20059;-69
2023/08/02 03:09:17;;;;;;;0.75;0.50;;;21.20;86.50;;;;;;5113910;28;20434;-68
2023/08/02 03:11:43;;;;;;;0.60;0.60;;;21.20;86.70;;;;;;5114063;28;20057;-68
2023/08/02 03:14:09;;;;;;;2.28;0.50;;;21.20;86.90;;;;;;5114031;28;20047;-68
2023/08/02 03:16:35;;;;;;;0.80;0.50;;;21.10;87.20;;;;;;5114045;28;20023;-69
2023/08/02 03:19:01;;;;;;;0.95;0.57;;;21.20;87.40;;;;;;5113672;28;20012;-68
2023/08/02 03:21:26;;;;;;;0.63;0.60;;;21.10;87.10;;;;;;5113764;28;20135;-68
2023/08/02 03:23:52;;;;;;;6.43;1.38;;;21.10;87.20;;;;;;5113747;28;20379;-68
2023/08/02 03:26:18;;;;;;;2.90;0.60;;;21.10;87.20;;;;;;5114011;28;20100;-67
2023/08/02 03:28:44;;;;;;;1.20;0.63;;;21.10;87.20;;;;;;5113812;28;20016;-68
2023/08/02 03:31:09;;;;;;;2.28;0.57;;;21.10;87.40;;;;;;5095296;28;20024;-68
2023/08/02 03:33:35;;;;;;;5.25;1.00;;;21.10;87.10;;;;;;5113746;28;20020;-70
2023/08/02 03:36:01;;;;;;;3.80;0.70;;;21.10;87.30;;;;;;5113460;28;20023;-69
2023/08/02 03:38:26;;;;;;;0.60;0.60;;;21.10;87.40;;;;;;5113401;28;20016;-68
2023/08/02 03:40:53;;;;;;;0.90;0.70;;;21.10;87.50;;;;;;5113476;28;20055;-68
2023/08/02 03:43:18;;;;;;;1.17;0.70;;;21.10;87.50;;;;;;5113216;28;20051;-69
2023/08/02 03:45:44;;;;;;;1.20;0.70;;;21.10;87.50;;;;;;5113003;28;20065;-68
2023/08/02 03:48:10;;;;;;;1.13;0.65;;;21.00;87.40;;;;;;5113234;28;20031;-68
2023/08/02 03:50:36;;;;;;;3.65;0.90;;;21.00;87.80;;;;;;5113417;28;20024;-68
2023/08/02 03:53:01;;;;;;;2.65;0.80;;;21.00;88.40;;;;;;5113520;28;20031;-67
2023/08/02 03:55:27;;;;;;;3.50;0.77;;;21.00;88.90;;;;;;5095075;28;20040;-67
2023/08/02 03:57:53;;;;;;;3.95;0.75;;;21.00;89.00;;;;;;5113326;28;20061;-67
2023/08/02 04:00:19;;;;;;;2.03;0.68;;;21.00;89.20;;;;;;5113062;28;20042;-68
2023/08/02 04:02:44;;;;;;;2.75;0.80;;;21.00;89.10;;;;;;5113496;28;20032;-68
2023/08/02 04:05:10;;;;;;;2.95;0.80;;;20.90;89.10;;;;;;5113115;28;20019;-68
2023/08/02 04:07:36;;;;;;;1.45;0.90;;;20.90;88.80;;;;;;5113204;28;20055;-68
2023/08/02 04:10:03;;;;;;;4.20;0.80;;;20.90;88.80;;;;;;5113214;28;20050;-68
2023/08/02 04:12:28;;;;;;;4.38;0.80;;;20.90;89.30;;;;;;5113193;28;20106;-68
2023/08/02 04:14:55;;;;;;;1.20;0.45;;;20.90;89.40;;;;;;5094691;28;20131;-67
2023/08/02 04:17:21;;;;;;;1.90;0.77;;;20.90;89.30;;;;;;5112857;28;20023;-67
2023/08/02 04:19:46;;;;;;;2.85;0.80;;;20.80;89.30;;;;;;5112776;28;20019;-67
2023/08/02 04:22:12;;;;;;;1.45;0.68;;;20.80;89.30;;;;;;5112868;28;20031;-68
2023/08/02 04:24:38;;;;;;;2.22;0.95;;;20.80;89.40;;;;;;5113125;28;20032;-68
2023/08/02 04:27:04;;;;;;;2.78;1.10;;;20.80;89.50;;;;;;5113213;28;20028;-68
2023/08/02 04:29:30;;;;;;;0.88;0.70;;;20.80;89.40;;;;;;5112908;28;20093;-68
2023/08/02 04:31:55;;;;;;;2.28;0.90;;;20.90;89.50;;;;;;5112818;28;20059;-67
2023/08/02 04:34:21;;;;;;;1.77;0.90;;;20.90;89.50;;;;;;5112697;28;20065;-67
2023/08/02 04:36:47;;;;;;;2.17;1.00;;;20.90;89.60;;;;;;5112808;28;20096;-67
2023/08/02 04:39:15;;;;;;;5.93;0.80;;;20.90;90.00;;;;;;5113264;28;20050;-68
2023/08/02 04:41:40;;;;;;;1.45;0.80;;;20.90;90.00;;;;;;5112700;28;20496;-68
2023/08/02 04:44:06;;;;;;;1.15;0.82;;;20.90;90.00;;;;;;5114502;28;20103;-67
2023/08/02 04:46:32;;;;;;;3.83;0.80;;;20.90;89.70;;;;;;5116779;28;20031;-66
2023/08/02 04:48:58;;;;;;;1.58;0.85;;;20.90;89.70;;;;;;5116774;28;21060;-68
2023/08/02 04:51:24;;;;;;;4.60;1.02;;;20.90;89.50;;;;;;5117095;28;20463;-67
2023/08/02 04:53:50;;;;;;;2.03;0.63;;;20.90;89.30;;;;;;5117008;28;20066;-67
2023/08/02 04:56:16;;;;;;;2.10;0.82;;;20.90;89.10;;;;;;5116299;28;20024;-67
2023/08/02 04:58:42;;;;;;;2.03;0.98;;;20.90;89.30;;;;;;5116700;28;20020;-68
2023/08/02 05:01:08;;;;;;;3.15;0.95;;;20.90;90.10;;;;;;5116778;28;20089;-67
2023/08/02 05:03:35;;;;;;;3.10;0.90;;;20.80;90.00;;;;;;5116680;28;20502;-67
2023/08/02 05:06:02;;;;;;;4.75;0.80;;;20.80;90.20;;;;;;5116567;28;20031;-67
2023/08/02 05:08:30;;;;;;;3.35;0.90;;;20.80;90.20;;;;;;5116444;28;20019;-68
2023/08/02 05:10:56;;;;;;;3.88;1.02;;;20.80;90.30;;;;;;5116324;28;20486;-69
2023/08/02 05:13:24;;;;;;;1.52;0.90;;;20.80;90.30;;;;;;5116447;28;20019;-69
2023/08/02 05:15:50;;;;;;;1.75;0.80;;;20.80;90.40;;;;;;5116217;28;20364;-69
2023/08/02 05:18:16;;;;;;;1.77;0.70;;;20.80;90.60;;;;;;5116373;28;20027;-67
2023/08/02 05:20:42;;;;;;;2.40;0.70;;;20.70;90.70;;;;;;5116271;28;20498;-69
2023/08/02 05:23:08;;;;;;;8.00;0.80;;;20.70;90.50;;;;;;5116297;28;20023;-68
2023/08/02 05:25:37;;;;;;;1.98;0.88;;;20.80;90.50;;;;;;5116167;28;20023;-68
2023/08/02 05:28:03;;;;;;;3.80;0.60;;;20.80;90.60;;;;;;5116323;28;20020;-68
2023/08/02 05:30:30;;;;;;;1.58;0.50;;;20.80;90.70;;;;;;5116152;28;20027;-68
2023/08/02 05:32:56;;;;;;;1.45;0.80;;;20.80;90.40;;;;;;5116199;28;20026;-69
2023/08/02 05:35:23;;;;;;;1.30;0.60;;;20.90;90.10;;;;;;5115872;28;20098;-68
2023/08/02 05:37:49;;;;;;;0.80;0.60;;;20.90;89.50;;;;;;5115866;28;20046;-69
2023/08/02 05:40:15;;;;;;;1.30;0.60;;;21.00;88.60;;;;;;5115917;28;20059;-68
2023/08/02 05:42:41;;;;;;;5.85;0.90;;;21.00;88.50;;;;;;5115665;28;19916;-70
2023/08/02 05:45:07;;;;;;;1.90;0.80;;;21.00;88.00;;;;;;5115670;28;20024;-70
2023/08/02 05:47:33;;;;;;;2.50;0.80;;;21.10;87.80;;;;;;5115162;28;20031;-73
2023/08/02 05:49:59;;;;;;;4.40;0.70;;;21.10;87.70;;;;;;5115524;28;20028;-68
2023/08/02 05:52:25;;;;;;;2.45;0.85;;;21.10;87.90;;;;;;5115506;28;20034;-70
2023/08/02 05:54:51;;;;;;;2.15;0.68;;;21.10;88.20;;;;;;5115709;28;20027;-70
2023/08/02 05:57:16;;;;;;;2.75;0.68;;;21.20;88.40;;;;;;5115773;28;20015;-69
2023/08/02 05:59:42;;;;;;;3.10;0.90;;;21.20;88.10;;;;;;5115215;28;20024;-72
2023/08/02 06:02:08;;;;;;;2.33;0.80;;;21.30;88.00;;;;;;5115246;28;20027;-71
2023/08/02 06:04:36;;;;;;;1.35;0.73;;;21.30;87.80;;;;;;5115208;28;20024;-69
2023/08/02 06:07:05;;;;;;;3.22;0.70;;;21.30;87.90;;;;;;5115230;28;20027;-69
2023/08/02 06:09:31;;;;;;;3.88;0.73;;;21.30;88.20;;;;;;5115186;28;20015;-69
2023/08/02 06:11:57;;;;;;;1.45;0.60;;;21.40;88.50;;;;;;5114723;28;20039;-70
2023/08/02 06:14:23;;;;;;;3.28;0.80;;;21.40;88.50;;;;;;5115302;28;20020;-73
2023/08/02 06:16:48;;;;;;;1.25;0.70;;;21.50;87.80;;;;;;5102704;28;20027;-71
2023/08/02 06:19:14;;;;;;;1.67;0.70;;;21.50;87.60;;;;;;5094529;28;20103;-71
2023/08/02 06:21:40;;;;;;;3.90;0.60;;;21.50;87.70;;;;;;5093817;28;20392;-68
2023/08/02 06:24:06;;;;;;;1.83;0.73;;;21.60;86.90;;;;;;5093935;28;20031;-70
2023/08/02 06:26:32;;;;;;;2.80;1.00;;;21.70;86.30;;;;;;5093053;28;20055;-69
2023/08/02 06:28:58;;;;;;;3.47;0.90;;;21.80;86.10;;;;;;5093527;28;20034;-65
2023/08/02 06:31:23;;;;;;;1.55;0.70;;;21.80;86.20;;;;;;5093475;28;20020;-68
2023/08/02 06:33:49;;;;;;;3.42;0.77;;;21.80;86.70;;;;;;5093439;28;20028;-68
2023/08/02 06:36:15;;;;;;;1.58;0.85;;;21.80;86.80;;;;;;5093699;28;20016;-72
2023/08/02 06:38:41;;;;;;;1.95;0.63;;;21.80;86.90;;;;;;5093609;28;20384;-67
2023/08/02 06:41:06;;;;;;;2.33;0.80;;;21.80;87.10;;;;;;5092951;28;20024;-71
2023/08/02 06:43:32;;;;;;;2.03;0.70;;;21.80;87.20;;;;;;5093302;28;20032;-73
2023/08/02 06:45:58;;;;;;;2.53;0.63;;;21.90;86.90;;;;;;5093004;28;20024;-70
2023/08/02 06:48:25;;;;;;;1.98;0.73;;;21.90;86.90;;;;;;5093240;28;20032;-73
2023/08/02 06:50:52;;;;;;;0.65;0.55;;;21.90;87.00;;;;;;5093315;28;20028;-73
2023/08/02 06:53:18;;;;;;;1.80;1.23;;;21.90;86.80;;;;;;5092891;28;20169;-73
2023/08/02 06:55:44;;;;;;;1.90;1.00;;;21.90;86.80;;;;;;5092826;28;20353;-73
2023/08/02 06:58:13;;;;;;;2.08;1.00;;;22.00;87.00;;;;;;5093279;28;20016;-74
2023/08/02 07:00:41;;;;;;;1.20;1.10;;;22.00;87.00;;;;;;5093384;28;20110;-71
2023/08/02 07:03:06;;;;;;;1.75;0.75;;;22.00;86.90;;;;;;5093079;28;20032;-71
2023/08/02 07:05:34;;;;;;;2.95;0.80;;;22.10;86.80;;;;;;5092859;28;20027;-71
2023/08/02 07:08:01;;;;;;;1.38;0.60;;;22.10;86.60;;;;;;5092892;28;20055;-71
2023/08/02 07:10:28;;;;;;;1.35;1.00;;;22.10;86.00;;;;;;5092261;28;20027;-72
2023/08/02 07:12:55;;;;;;;2.15;0.93;;;22.20;85.50;;;;;;5093124;28;20495;-74
2023/08/02 07:15:21;;;;;;;1.35;0.80;;;22.20;85.10;;;;;;5085383;28;20012;-74
2023/08/02 07:17:48;;;;;;;1.55;1.20;;;22.20;84.90;;;;;;5093589;28;20032;-71
2023/08/02 07:20:14;;;;;;;3.70;0.77;;;22.30;85.50;;;;;;5093148;28;20498;-72
2023/08/02 07:22:42;;;;;;;1.77;0.68;;;22.30;85.70;;;;;;5093400;28;20089;-71
2023/08/02 07:25:08;;;;;;;4.15;0.90;;;22.40;85.70;;;;;;5093381;28;20020;-72
2023/08/02 07:27:34;;;;;;;5.75;1.23;;;22.40;85.30;;;;;;5093623;28;20074;-72
2023/08/02 07:30:01;;;;;;;4.82;0.95;;;22.50;85.70;;;;;;5093391;28;20048;-71
2023/08/02 07:32:26;;;;;;;2.15;1.00;;;22.50;86.10;;;;;;5093119;28;20177;-71
2023/08/02 07:34:52;;;;;;;2.92;0.90;;;22.50;85.40;;;;;;5093206;28;20103;-73
2023/08/02 07:37:18;;;;;;;1.73;0.85;;;22.60;85.30;;;;;;5093440;28;20032;-73
2023/08/02 07:39:44;;;;;;;4.15;1.17;;;22.70;85.50;;;;;;5093445;28;20468;-73
2023/08/02 07:42:10;;;;;;;4.53;0.90;;;22.70;85.90;;;;;;5093248;28;20094;-73
2023/08/02 07:44:37;;;;;;;1.42;0.80;;;22.80;86.00;;;;;;5093262;28;20546;-75
2023/08/02 07:47:04;;;;;;;2.42;1.23;;;22.80;85.10;;;;;;5092874;28;20028;-76
2023/08/02 07:49:31;;;;;;;1.80;0.77;;;22.90;84.70;;;;;;5093061;28;20020;-76
2023/08/02 07:51:56;;;;;;;1.10;0.82;;;22.90;84.80;;;;;;5092962;28;20069;-76
2023/08/02 07:54:22;;;;;;;0.90;0.80;;;22.90;85.20;;;;;;5093050;28;20501;-75
2023/08/02 07:56:48;;;;;;;1.35;0.90;;;22.90;85.20;;;;;;5092892;28;20032;-75
2023/08/02 07:59:14;;;;;;;1.40;1.00;;;22.90;84.60;;;;;;5093210;28;20021;-76
2023/08/02 08:01:43;;;;;;;6.57;1.10;;;22.90;84.50;;;;;;5092995;28;20028;-75
2023/08/02 08:04:09;;;;;;;1.30;0.80;;;22.90;85.10;;;;;;5093433;28;20032;-75
2023/08/02 08:06:35;;;;;;;2.30;0.70;;;23.00;85.30;;;;;;5092816;28;20028;-74
2023/08/02 08:09:01;;;;;;;2.95;0.80;;;23.00;85.60;;;;;;5093214;28;20020;-75
2023/08/02 08:11:28;;;;;;;3.00;0.98;;;23.00;85.50;;;;;;5092782;28;20020;-75
2023/08/02 08:13:54;;;;;;;2.47;1.20;;;23.00;85.70;;;;;;5092904;28;20057;-75
2023/08/02 08:16:20;;;;;;;2.22;1.20;;;23.00;86.10;;;;;;5092932;28;20023;-75
2023/08/02 08:18:45;;;;;;;3.38;0.90;;;23.10;85.80;;;;;;5094138;28;20032;-75
2023/08/02 08:21:11;;;;;;;2.00;1.00;;;23.10;85.80;;;;;;5096749;28;20036;-74
2023/08/02 08:23:37;;;;;;;1.45;0.75;;;23.10;86.00;;;;;;5096624;28;20020;-74
2023/08/02 08:26:03;;;;;;;1.80;0.80;;;23.10;86.00;;;;;;5096688;28;20031;-74
2023/08/02 08:28:29;;;;;;;1.27;0.85;;;23.20;86.20;;;;;;5096597;28;20107;-74
2023/08/02 08:30:59;;;;;;;2.63;0.90;;;23.20;86.20;;;;;;5078641;28;20529;-75
2023/08/02 08:33:25;;;;;;;1.67;0.90;;;23.30;86.20;;;;;;5096756;28;20024;-74
2023/08/02 08:35:51;;;;;;;1.77;1.05;;;23.30;85.70;;;;;;5078479;28;20433;-75
2023/08/02 08:38:16;;;;;;;1.35;0.85;;;23.40;84.50;;;;;;5096521;28;20030;-75
2023/08/02 08:40:55;;;;;;;1.00;0.85;;;23.40;84.20;;;;;;5096362;28;20035;-74
2023/08/02 08:43:26;;;;;;;1.77;0.95;;;23.50;84.70;;;;;;5096371;28;20048;-73
2023/08/02 08:45:53;;;;;;;3.53;0.90;;;23.50;84.90;;;;;;5096593;28;20031;-74
2023/08/02 08:48:21;;;;;;;3.40;1.30;;;23.60;84.90;;;;;;5096037;28;20261;-75
2023/08/02 08:50:56;;;;;;;2.78;1.23;;;23.60;85.30;;;;;;5078310;28;20426;-74
2023/08/02 08:53:33;;;;;;;2.38;1.10;;;23.70;85.40;;;;;;5096424;28;20028;-74
2023/08/02 08:56:00;;;;;;;3.13;0.90;;;23.80;85.20;;;;;;5096492;28;20020;-75
2023/08/02 08:58:27;;;;;;;1.65;0.90;;;23.90;84.90;;;;;;5096150;28;20024;-75
2023/08/02 09:00:58;;;;;;;2.47;1.15;;;23.90;85.50;;;;;;5096211;28;20499;-75
2023/08/02 09:03:24;;;;;;;2.33;1.25;;;24.00;86.00;;;;;;5096130;28;20024;-75
2023/08/02 09:05:50;;;;;;;2.08;1.10;;;24.00;85.90;;;;;;5096023;28;20027;-75
2023/08/02 09:08:16;;;;;;;4.07;1.20;;;24.10;85.50;;;;;;5095980;28;20115;-75
2023/08/02 09:10:42;;;;;;;3.70;1.05;;;24.10;85.10;;;;;;5096008;28;20020;-75
2023/08/02 09:13:34;;;;;;;1.35;0.90;;;24.20;84.90;;;;;;5095885;28;20032;-75
2023/08/02 09:16:16;;;;;;;2.65;1.15;;;24.20;84.60;;;;;;5091261;28;20024;-75
2023/08/02 09:18:44;;;;;;;4.30;1.20;;;24.20;85.00;;;;;;5095376;28;20468;-76
2023/08/02 09:21:14;;;;;;;2.75;1.17;;;24.20;84.60;;;;;;5095310;28;20043;-74
2023/08/02 09:24:00;;;;;;;2.92;1.10;;;24.20;84.20;;;;;;5095886;28;20021;-74
2023/08/02 09:26:27;;;;;;;6.55;1.38;;;24.20;84.00;;;;;;5095182;28;20041;-74
2023/08/02 09:29:06;;;;;;;1.35;1.05;;;24.20;84.20;;;;;;5095100;28;20021;-74
2023/08/02 09:31:34;;;;;;;1.15;1.02;;;24.20;85.00;;;;;;5095673;28;20078;-74
2023/08/02 09:34:00;;;;;;;8.15;1.45;;;24.30;85.10;;;;;;5095810;28;20066;-75
2023/08/02 09:36:34;;;;;;;2.13;1.20;;;24.30;85.20;;;;;;5095580;28;20082;-75
2023/08/02 09:39:09;;;;;;;1.33;0.90;;;24.30;86.30;;;;;;5087123;28;20480;-76
2023/08/02 09:41:35;;;;;;;5.07;1.30;;;24.40;86.90;;;;;;5095315;28;20565;-73
2023/08/02 09:44:01;;;;;;;1.25;1.08;;;24.50;86.60;;;;;;5077335;28;20016;-74
2023/08/02 09:46:29;;;;;;;1.83;1.10;;;24.50;85.80;;;;;;5095298;28;20392;-75
2023/08/02 09:48:59;;;;;;;2.00;1.48;;;24.50;85.10;;;;;;5095020;28;20035;-73
2023/08/02 09:51:42;;;;;;;3.80;1.27;;;24.50;85.60;;;;;;5095088;28;20027;-73
2023/08/02 09:54:09;;;;;;;2.20;1.20;;;24.60;85.50;;;;;;5095311;28;20024;-75
2023/08/02 09:56:36;;;;;;;3.90;1.00;;;24.60;84.90;;;;;;5094992;28;20032;-80
2023/08/02 09:59:03;;;;;;;3.10;1.33;;;24.60;84.10;;;;;;5095111;28;20012;-76
2023/08/02 10:01:30;;;;;;;2.70;1.42;;;24.70;84.10;;;;;;5094593;28;20039;-79
2023/08/02 10:03:59;;;;;;;1.88;1.50;;;24.70;84.00;;;;;;5094647;28;20101;-79
2023/08/02 10:06:31;;;;;;;3.75;1.30;;;24.70;83.60;;;;;;5094995;28;20103;-80
2023/08/02 10:09:07;;;;;;;5.55;1.67;;;24.70;84.30;;;;;;5094904;28;20422;-78
2023/08/02 10:11:40;;;;;;;1.80;1.30;;;24.70;83.50;;;;;;5094622;28;20031;-78
2023/08/02 10:14:08;;;;;;;3.30;1.13;;;24.80;84.10;;;;;;5094539;28;20027;-76
2023/08/02 10:16:35;;;;;;;3.95;1.27;;;24.80;85.70;;;;;;5094643;28;20039;-73
2023/08/02 10:19:01;;;;;;;5.68;1.77;;;24.80;87.20;;;;;;5094743;28;20488;-72
2023/08/02 10:21:30;;;;;;;2.22;1.30;;;24.90;86.60;;;;;;5094563;28;20414;-74
2023/08/02 10:23:58;;;;;;;2.15;1.60;;;24.90;84.90;;;;;;5094518;28;20026;-73
2023/08/02 10:26:25;;;;;;;3.13;1.90;;;24.90;83.60;;;;;;5094557;28;20488;-73
2023/08/02 10:28:52;;;;;;;3.95;1.80;;;24.90;83.40;;;;;;5094876;28;20423;-75
2023/08/02 10:31:18;;;;;;;5.10;1.67;;;24.90;82.30;;;;;;5094328;28;20050;-75
2023/08/02 10:33:44;;;;;;;3.33;1.88;;;24.90;82.40;;;;;;5094300;28;20026;-73
2023/08/02 10:36:09;;;;;;;5.65;1.77;;;25.00;82.00;;;;;;5094388;28;20023;-73
2023/08/02 10:38:47;;;;;;;2.75;1.85;;;24.90;81.80;;;;;;5094184;28;20060;-74
2023/08/02 10:41:18;;;;;;;2.90;1.75;;;25.00;82.10;;;;;;5092938;28;20471;-75
2023/08/02 10:44:06;;;;;;;2.90;2.00;;;25.00;84.00;;;;;;5075838;28;20046;-76
2023/08/02 10:46:33;;;;;;;3.22;2.13;;;25.10;82.80;;;;;;5078356;28;20036;-75
2023/08/02 10:49:10;;;;;;;6.10;1.92;;;25.20;83.00;;;;;;5094018;28;20470;-75
2023/08/02 10:51:37;;;;;;;4.95;1.98;;;25.20;82.50;;;;;;5094193;28;20024;-75
2023/08/02 10:54:21;;;;;;;2.38;1.70;;;25.30;83.30;;;;;;5093798;28;20434;-76
2023/08/02 10:56:56;;;;;;;4.65;2.08;;;25.30;81.70;;;;;;5075265;28;20032;-75
2023/08/02 10:59:24;;;;;;;3.75;2.00;;;25.40;82.10;;;;;;5094089;28;20020;-76
2023/08/02 11:01:57;;;;;;;3.40;1.77;;;25.40;80.00;;;;;;5093570;28;20440;-75
2023/08/02 11:04:24;;;;;;;6.05;2.33;;;25.40;79.70;;;;;;5093870;28;20091;-75
2023/08/02 11:06:50;;;;;;;3.15;1.90;;;25.40;80.30;;;;;;5093963;28;20384;-75
2023/08/02 11:09:16;;;;;;;2.75;1.77;;;25.40;80.30;;;;;;5093844;28;20035;-75
2023/08/02 11:11:42;;;;;;;5.30;2.10;;;25.40;81.00;;;;;;5093450;28;20020;-75
2023/08/02 11:14:08;;;;;;;8.65;2.30;;;25.30;81.80;;;;;;5093701;28;20024;-77
2023/08/02 11:16:41;;;;;;;3.78;2.17;;;25.30;82.10;;;;;;5093530;28;20032;-76
2023/08/02 11:19:11;;;;;;;6.40;1.95;;;25.40;84.00;;;;;;5094966;28;20422;-76
2023/08/02 11:21:38;;;;;;;3.35;2.03;;;25.40;82.90;;;;;;5076616;28;20032;-75
2023/08/02 11:24:04;;;;;;;4.82;2.03;;;25.40;82.20;;;;;;5094915;28;20024;-74
2023/08/02 11:26:30;;;;;;;3.13;2.20;;;25.50;82.00;;;;;;5095114;28;20066;-78
2023/08/02 11:28:59;;;;;;;4.18;1.92;;;25.50;82.80;;;;;;5094503;28;20533;-77
2023/08/02 11:31:28;;;;;;;6.25;2.90;;;25.60;81.30;;;;;;5075372;28;20051;-74
2023/08/02 11:33:57;;;;;;;4.03;1.80;;;25.60;81.70;;;;;;5093409;28;20020;-74
2023/08/02 11:36:23;;;;;;;2.83;1.90;;;25.70;82.30;;;;;;5093519;28;20020;-74
2023/08/02 11:38:50;;;;;;;4.47;2.00;;;25.70;80.10;;;;;;5093476;28;20035;-74
2023/08/02 11:41:17;;;;;;;3.88;2.25;;;25.70;80.00;;;;;;5092997;28;20028;-74
2023/08/02 11:43:42;;;;;;;3.53;1.80;;;25.80;81.10;;;;;;5093074;28;20111;-76
2023/08/02 11:46:13;;;;;;;3.72;2.20;;;25.90;81.40;;;;;;5093127;28;20108;-75
2023/08/02 11:48:39;;;;;;;5.15;1.80;;;25.90;82.80;;;;;;5093351;28;20099;-75
2023/08/02 11:51:05;;;;;;;4.97;1.60;;;26.00;83.10;;;;;;5093269;28;20441;-76
2023/08/02 11:53:30;;;;;;;3.40;1.80;;;26.00;83.30;;;;;;5092750;28;20055;-76
2023/08/02 11:55:56;;;;;;;6.82;1.80;;;26.00;82.70;;;;;;5092976;28;20035;-76
2023/08/02 11:58:22;;;;;;;3.15;1.85;;;26.10;81.40;;;;;;5093043;28;20116;-76
2023/08/02 12:00:48;;;;;;;5.50;1.90;;;26.20;80.30;;;;;;5092947;28;20028;-76
2023/08/02 12:03:15;;;;;;;3.80;2.08;;;26.20;81.30;;;;;;5092958;28;20103;-76
2023/08/02 12:05:42;;;;;;;3.10;1.70;;;26.30;81.30;;;;;;5092294;28;20043;-76
2023/08/02 12:08:14;;;;;;;4.95;1.80;;;26.40;80.50;;;;;;5089788;28;20118;-75
2023/08/02 12:10:41;;;;;;;;;;;26.40;80.50;;;;;;5090298;28;20024;-77
2023/08/02 12:13:14;;;;;;;4.55;1.83;;;26.40;80.70;;;;;;5090659;28;19957;-76
2023/08/02 12:16:04;;;;;;;4.35;2.08;;;26.40;79.90;;;;;;5092437;28;20025;-76
2023/08/02 12:18:30;;;;;;;3.67;1.90;;;26.30;80.00;;;;;;5092654;28;20020;-76
2023/08/02 12:20:56;;;;;;;4.05;2.20;;;26.30;80.10;;;;;;5092591;28;20032;-76
2023/08/02 12:23:32;;;;;;;4.30;2.13;;;26.30;80.60;;;;;;5084192;28;20050;-76
2023/08/02 12:25:57;;;;;;;3.90;1.90;;;26.30;80.10;;;;;;5092267;28;20024;-76
2023/08/02 12:28:24;;;;;;;3.90;1.98;;;26.30;81.00;;;;;;5092532;28;20486;-76
2023/08/02 13:03:52;;;;;;;2.70;2.08;;;26.40;79.90;;;;;;5026224;28;20108;-74
2023/08/02 13:06:18;;;;;;;5.13;2.17;;;26.40;81.50;;;;;;5024039;28;20034;-75
2023/08/02 13:08:44;;;;;;;4.32;2.28;;;26.50;80.90;;;;;;5024015;28;20030;-75
2023/08/02 13:11:10;;;;;;;6.35;2.30;;;26.60;79.70;;;;;;5024616;28;20380;-76
2023/08/02 13:13:35;;;;;;;5.55;2.53;;;26.60;78.80;;;;;;5026645;28;20022;-74
2023/08/02 13:16:01;;;;;;;2.42;2.00;;;26.60;77.80;;;;;;5026583;28;20101;-75
2023/08/02 13:18:27;;;;;;;3.13;2.00;;;26.70;78.50;;;;;;5026408;28;20018;-74
2023/08/02 13:20:52;;;;;;;5.43;2.10;;;26.80;79.00;;;;;;5026618;28;20076;-75